Stations météo

réclame
Mon MeteoGroup
Barcelona, Espagne (8180): Température de l'air & dewpoint: 18.01.2018 10:00:00 - 24.01.2018 10:00:00 (CET)Barcelona, Espagne (8180): Vitesse du vent & gusts: 18.01.2018 10:00:00 - 24.01.2018 10:00:00 (CET)Barcelona, Espagne (8180): Direction du vent: 18.01.2018 10:00:00 - 24.01.2018 10:00:00 (CET)Barcelona, Espagne (8180): Quantités de précipitations: 18.01.2018 10:00:00 - 24.01.2018 10:00:00 (CET)
Date & Time tt [°C] td [°C] ff [km/h] ff [knt] fx [km/h] fx [knt] dd rr [mm]
24.01.2018 10:00:00 11,1 7,3 9 5 15 8 N 0,0
24.01.2018 09:00:00 9,2 6,2 8 4 12 6 N 0,0
24.01.2018 08:00:00 8,7 5,9 10 6 17 9 NNW 0,0
24.01.2018 07:00:00 8,4 5,8 12 6 21 12 N -
24.01.2018 06:00:00 9,1 6,4 4 2 8 4 NNE 0,0
24.01.2018 05:00:00 10,2 7,3 3 2 8 5 NNW 0,0
24.01.2018 04:00:00 10,4 7,4 6 3 10 5 NNW 0,0
24.01.2018 03:00:00 10,9 8,0 4 2 10 5 NNW 0,0
24.01.2018 02:00:00 11,2 8,3 6 3 10 6 NNW 0,0
24.01.2018 01:00:00 11,4 8,7 6 4 10 5 N -
24.01.2018 00:00:00 11,8 8,8 0 0 4 2 N 0,0
23.01.2018 23:00:00 12,3 10,0 2 1 6 4 SSE 0,0
23.01.2018 22:00:00 12,7 9,6 1 0 7 4 WNW 0,0
23.01.2018 21:00:00 12,7 10,6 7 4 11 6 E 0,0
23.01.2018 20:00:00 13,5 10,5 9 5 12 7 W 0,0
23.01.2018 19:00:00 12,7 10,6 3 2 9 5 SW -
23.01.2018 18:00:00 13,2 11,1 1 1 8 4 E 0,0
23.01.2018 17:00:00 14,2 11,0 6 3 9 5 SE 0,0
23.01.2018 16:00:00 14,7 10,5 6 3 12 7 S 0,0
23.01.2018 15:00:00 16,5 11,0 7 4 13 7 ESE 0,0
23.01.2018 14:00:00 15,9 10,4 11 6 13 7 E 0,0
23.01.2018 13:00:00 16,5 9,9 13 7 14 8 ESE -
23.01.2018 12:00:00 16,4 9,0 6 3 11 6 E 0,0
23.01.2018 11:00:00 14,7 8,4 5 3 16 8 NNW 0,0
23.01.2018 10:00:00 12,5 7,6 9 5 17 9 N 0,0
23.01.2018 09:00:00 11,7 7,6 10 5 22 12 NNW 0,0
23.01.2018 08:00:00 10,5 6,8 8 4 15 8 NNW 0,0
23.01.2018 07:00:00 11,0 7,3 9 5 18 10 NE -
23.01.2018 06:00:00 12,7 8,0 3 2 17 9 NNW 0,0
23.01.2018 05:00:00 11,9 8,0 7 4 13 7 WNW 0,0
23.01.2018 04:00:00 12,2 7,8 7 4 14 8 NNW 0,0
23.01.2018 03:00:00 12,8 8,3 7 4 13 7 W 0,0
23.01.2018 02:00:00 13,8 8,7 4 2 18 10 NW 0,0
23.01.2018 01:00:00 13,2 8,7 8 4 17 9 N -
23.01.2018 00:00:00 13,4 9,4 10 6 18 10 NNW 0,0
22.01.2018 23:00:00 13,6 10,0 8 4 10 6 NNW 0,0
22.01.2018 22:00:00 13,5 10,5 7 4 10 5 NE 0,0
22.01.2018 21:00:00 13,7 9,3 8 5 13 7 ENE 0,0
22.01.2018 20:00:00 13,8 9,3 7 4 14 7 ENE 0,0
22.01.2018 19:00:00 14,0 11,1 5 3 10 6 ENE -
22.01.2018 18:00:00 15,0 10,6 8 5 13 7 ENE 0,0
22.01.2018 17:00:00 15,5 11,3 10 5 23 12 E 0,0
22.01.2018 16:00:00 19,3 8,7 12 6 23 13 NW 0,0
22.01.2018 15:00:00 19,7 9,3 11 6 23 13 NNW 0,0
22.01.2018 14:00:00 19,5 9,7 6 3 22 12 NNW 0,0
22.01.2018 13:00:00 18,2 9,0 8 4 24 13 NW -
22.01.2018 12:00:00 16,4 8,7 9 5 27 15 NW 0,0
22.01.2018 11:00:00 15,4 8,4 11 6 29 16 WNW 0,0
22.01.2018 10:00:00 14,3 8,0 18 10 34 19 NW 0,0
22.01.2018 09:00:00 13,5 7,7 12 6 33 18 WNW 0,0
22.01.2018 08:00:00 12,9 7,3 17 9 27 15 NNW 0,0
22.01.2018 07:00:00 13,7 7,4 5 3 18 10 NNW -
22.01.2018 06:00:00 14,3 7,6 8 5 26 14 NW 0,0
22.01.2018 05:00:00 14,5 7,6 10 5 33 18 NNW 0,0
22.01.2018 04:00:00 14,8 7,6 16 9 41 22 NNW 0,0
22.01.2018 03:00:00 15,3 7,8 20 11 36 19 NNW 0,0
22.01.2018 02:00:00 15,8 7,8 4 2 26 14 WSW 0,0
22.01.2018 01:00:00 16,5 8,0 8 4 24 13 WNW -
22.01.2018 00:00:00 16,9 8,4 11 6 24 13 WSW 0,0
21.01.2018 23:00:00 17,6 8,4 15 8 32 17 WSW 0,0
21.01.2018 22:00:00 17,7 8,8 16 9 40 22 WNW 0,0
21.01.2018 21:00:00 18,6 9,0 13 7 27 15 WSW 0,0
21.01.2018 20:00:00 19,4 9,6 8 5 24 13 WSW 0,0
21.01.2018 19:00:00 19,7 9,8 8 4 24 13 WSW -
21.01.2018 18:00:00 20,9 10,0 11 6 21 12 WSW 0,0
21.01.2018 17:00:00 21,8 10,9 8 4 24 13 WSW 0,0
21.01.2018 16:00:00 21,1 10,3 12 7 39 21 NNW 0,0
21.01.2018 15:00:00 20,5 10,0 21 11 40 22 NW 0,0
21.01.2018 14:00:00 18,5 9,8 19 11 42 23 NW 0,0
21.01.2018 13:00:00 17,7 9,6 21 11 46 25 NW -
21.01.2018 12:00:00 16,5 9,4 14 7 30 16 WNW 0,0
21.01.2018 11:00:00 15,7 8,9 14 7 40 21 WNW 0,0
21.01.2018 10:00:00 15,2 8,7 21 11 45 24 NW 0,0
21.01.2018 09:00:00 15,0 8,5 27 14 59 32 NW 0,0
21.01.2018 08:00:00 14,9 8,1 0 0 46 25 SSW 0,0
21.01.2018 07:00:00 15,2 8,3 16 9 41 22 NW -
21.01.2018 06:00:00 15,1 8,4 12 7 53 29 NW 0,0
21.01.2018 05:00:00 15,2 8,4 29 16 62 34 NW 0,0
21.01.2018 04:00:00 15,3 8,3 31 17 64 35 NW 0,0
21.01.2018 03:00:00 15,2 8,3 22 12 49 27 WNW 0,0
21.01.2018 02:00:00 14,8 8,3 14 7 23 13 SE 0,0
21.01.2018 01:00:00 - - - - - - - -
21.01.2018 00:00:00 14,6 7,4 6 3 25 14 NNE 0,0
20.01.2018 23:00:00 15,1 6,8 14 7 26 14 NNW 0,0
20.01.2018 22:00:00 15,8 6,8 3 2 31 17 SW 0,0
20.01.2018 21:00:00 15,8 6,5 16 8 32 18 WNW 0,0
20.01.2018 20:00:00 16,1 5,6 14 8 36 19 W 0,0
20.01.2018 19:00:00 15,7 4,6 12 6 26 14 W -
20.01.2018 18:00:00 14,8 6,8 9 5 18 10 W 0,0
20.01.2018 17:00:00 15,8 5,5 11 6 39 21 WSW 0,0
20.01.2018 16:00:00 16,0 3,8 16 8 48 26 WNW 0,0
20.01.2018 15:00:00 16,1 3,8 26 14 46 25 W 0,0
20.01.2018 14:00:00 14,8 6,8 11 6 25 13 WSW 0,0
20.01.2018 13:00:00 12,9 5,3 18 10 24 13 SSW -
20.01.2018 12:00:00 12,8 4,8 5 3 23 13 SSW 0,0
20.01.2018 11:00:00 11,4 4,3 4 2 18 10 NW 0,0
20.01.2018 10:00:00 10,3 4,3 8 4 23 12 W 0,0
20.01.2018 09:00:00 9,2 3,9 10 5 20 11 NNW 0,0
20.01.2018 08:00:00 9,0 3,8 10 5 20 11 NNW 0,0
20.01.2018 07:00:00 9,2 3,9 3 1 8 4 WNW -
20.01.2018 06:00:00 9,5 3,9 1 1 8 5 NNW 0,0
20.01.2018 05:00:00 9,5 3,9 6 3 18 10 N 0,0
20.01.2018 04:00:00 10,1 3,9 7 4 18 10 NNW 0,0
20.01.2018 03:00:00 10,5 5,0 7 4 14 8 NW 0,0
20.01.2018 02:00:00 10,7 6,4 4 2 9 5 NNW 0,0
20.01.2018 01:00:00 - - - - - - - -
20.01.2018 00:00:00 10,7 6,8 7 4 16 9 NNW 0,0
19.01.2018 23:00:00 10,5 6,8 9 5 31 17 N 0,0
19.01.2018 22:00:00 10,6 7,0 9 5 15 8 N 0,0
19.01.2018 21:00:00 11,1 7,4 7 4 14 8 N 0,0
19.01.2018 20:00:00 11,2 7,8 5 3 9 5 NE 0,0
19.01.2018 19:00:00 11,3 8,4 2 1 10 6 WNW -
19.01.2018 18:00:00 11,4 8,1 8 4 11 6 ENE 0,0
19.01.2018 17:00:00 12,2 7,1 10 6 14 8 E 0,0
19.01.2018 16:00:00 12,0 6,8 12 6 15 8 ENE 0,0
19.01.2018 15:00:00 12,3 6,1 10 5 16 9 E 0,0
19.01.2018 14:00:00 12,7 5,6 8 5 13 7 E 0,0
19.01.2018 13:00:00 11,3 4,3 6 3 12 7 NNE -
19.01.2018 12:00:00 10,2 4,1 8 4 14 8 N 0,0
19.01.2018 11:00:00 9,0 3,8 8 4 15 8 N 0,0
19.01.2018 10:00:00 8,2 3,4 5 3 15 8 N 0,0
19.01.2018 09:00:00 7,3 3,0 3 2 16 8 NNW 0,0
19.01.2018 08:00:00 7,3 3,0 7 4 14 8 N 0,0
19.01.2018 07:00:00 7,2 3,0 3 1 16 9 E -
19.01.2018 06:00:00 7,5 3,2 8 4 16 9 NNW 0,0
19.01.2018 05:00:00 7,6 3,0 8 4 15 8 N 0,0
19.01.2018 04:00:00 8,2 3,0 8 4 15 8 N 0,0
19.01.2018 03:00:00 9,0 3,4 3 2 19 10 NNE 0,0
19.01.2018 02:00:00 9,2 3,6 6 3 14 8 N 0,0
19.01.2018 01:00:00 10,4 3,6 4 2 9 5 N -
19.01.2018 00:00:00 10,6 3,6 2 1 9 5 W 0,0
18.01.2018 23:00:00 10,8 3,6 2 1 17 9 NNE 0,0
18.01.2018 22:00:00 11,4 3,6 10 5 17 9 WNW 0,0
18.01.2018 21:00:00 11,6 3,4 8 5 14 8 WNW 0,0
18.01.2018 20:00:00 12,4 3,8 8 4 16 9 NW 0,0
18.01.2018 19:00:00 12,6 6,4 6 4 21 11 WNW -
18.01.2018 18:00:00 12,7 5,6 10 6 22 12 WSW 0,0
18.01.2018 17:00:00 13,3 5,5 12 7 25 14 SW 0,0
18.01.2018 16:00:00 14,3 5,3 13 7 24 13 WSW 0,0
18.01.2018 15:00:00 13,9 6,1 9 5 23 12 SSW 0,0
18.01.2018 14:00:00 13,3 4,6 14 7 23 12 W 0,0
18.01.2018 13:00:00 12,8 3,9 12 7 22 12 NW -
18.01.2018 12:00:00 12,5 3,8 6 3 21 11 NNW 0,0
18.01.2018 11:00:00 12,5 3,9 9 5 14 8 NW 0,0
18.01.2018 10:00:00 12,0 4,6 3 2 15 8 N 0,0

tt = Température de l'air
td = dewpoint
ff = Vitesse du vent
fx = gusts
dd = Direction du vent
rr = Quantités de précipitations

stations d'obs. à proximité